sensor_id;sensor_type;location;lat;lon;timestamp;P1;durP1;ratioP1;P2;durP2;ratioP2
908;SDS011;441;51.192;6.788;2023-11-21T00:02:20;8.20;;;8.00;;
908;SDS011;441;51.192;6.788;2023-11-21T00:04:47;8.50;;;8.10;;
908;SDS011;441;51.192;6.788;2023-11-21T00:07:15;8.40;;;8.00;;
908;SDS011;441;51.192;6.788;2023-11-21T00:09:42;8.40;;;8.10;;
908;SDS011;441;51.192;6.788;2023-11-21T00:12:09;8.87;;;8.67;;
908;SDS011;441;51.192;6.788;2023-11-21T00:14:37;7.70;;;7.50;;
908;SDS011;441;51.192;6.788;2023-11-21T00:17:04;7.70;;;7.50;;
908;SDS011;441;51.192;6.788;2023-11-21T00:19:31;8.40;;;8.00;;
908;SDS011;441;51.192;6.788;2023-11-21T00:21:58;8.40;;;8.10;;
908;SDS011;441;51.192;6.788;2023-11-21T00:24:25;8.10;;;7.90;;
908;SDS011;441;51.192;6.788;2023-11-21T00:26:52;8.53;;;8.30;;
908;SDS011;441;51.192;6.788;2023-11-21T00:29:19;8.23;;;7.93;;
908;SDS011;441;51.192;6.788;2023-11-21T00:31:47;8.00;;;7.80;;
908;SDS011;441;51.192;6.788;2023-11-21T00:34:14;8.60;;;8.30;;
908;SDS011;441;51.192;6.788;2023-11-21T00:36:41;7.90;;;7.50;;
908;SDS011;441;51.192;6.788;2023-11-21T00:39:07;8.50;;;8.13;;
908;SDS011;441;51.192;6.788;2023-11-21T00:41:34;7.87;;;7.63;;
908;SDS011;441;51.192;6.788;2023-11-21T00:44:02;8.17;;;7.87;;
908;SDS011;441;51.192;6.788;2023-11-21T00:46:29;8.80;;;8.53;;
908;SDS011;441;51.192;6.788;2023-11-21T00:48:57;8.93;;;8.53;;
908;SDS011;441;51.192;6.788;2023-11-21T00:51:23;8.80;;;8.57;;
908;SDS011;441;51.192;6.788;2023-11-21T00:53:50;7.87;;;7.47;;
908;SDS011;441;51.192;6.788;2023-11-21T00:56:18;7.57;;;7.30;;
908;SDS011;441;51.192;6.788;2023-11-21T00:58:45;8.40;;;7.97;;
908;SDS011;441;51.192;6.788;2023-11-21T01:01:15;7.43;;;7.23;;
908;SDS011;441;51.192;6.788;2023-11-21T01:03:42;7.23;;;7.03;;
908;SDS011;441;51.192;6.788;2023-11-21T01:06:10;7.97;;;7.67;;
908;SDS011;441;51.192;6.788;2023-11-21T01:08:37;8.47;;;8.20;;
908;SDS011;441;51.192;6.788;2023-11-21T01:11:04;8.00;;;7.80;;
908;SDS011;441;51.192;6.788;2023-11-21T01:13:33;8.63;;;8.43;;
908;SDS011;441;51.192;6.788;2023-11-21T01:16:01;8.40;;;8.20;;
908;SDS011;441;51.192;6.788;2023-11-21T01:18:28;8.50;;;8.30;;
908;SDS011;441;51.192;6.788;2023-11-21T01:20:55;8.37;;;8.07;;
908;SDS011;441;51.192;6.788;2023-11-21T01:23:24;7.80;;;7.60;;
908;SDS011;441;51.192;6.788;2023-11-21T01:25:50;9.33;;;9.03;;
908;SDS011;441;51.192;6.788;2023-11-21T01:28:17;7.77;;;7.57;;
908;SDS011;441;51.192;6.788;2023-11-21T01:30:44;7.90;;;7.70;;
908;SDS011;441;51.192;6.788;2023-11-21T01:33:11;7.93;;;7.73;;
908;SDS011;441;51.192;6.788;2023-11-21T01:35:40;8.70;;;8.27;;
908;SDS011;441;51.192;6.788;2023-11-21T01:38:07;8.00;;;7.80;;
908;SDS011;441;51.192;6.788;2023-11-21T01:40:35;9.00;;;8.70;;
908;SDS011;441;51.192;6.788;2023-11-21T01:43:02;10.13;;;9.53;;
908;SDS011;441;51.192;6.788;2023-11-21T01:45:29;9.40;;;9.10;;
908;SDS011;441;51.192;6.788;2023-11-21T01:47:58;9.50;;;9.20;;
908;SDS011;441;51.192;6.788;2023-11-21T01:50:26;8.73;;;8.43;;
908;SDS011;441;51.192;6.788;2023-11-21T01:52:54;9.63;;;9.13;;
908;SDS011;441;51.192;6.788;2023-11-21T01:55:21;8.50;;;8.20;;
908;SDS011;441;51.192;6.788;2023-11-21T01:57:50;8.00;;;7.80;;
908;SDS011;441;51.192;6.788;2023-11-21T02:00:17;8.63;;;8.40;;
908;SDS011;441;51.192;6.788;2023-11-21T02:02:44;8.43;;;8.13;;
908;SDS011;441;51.192;6.788;2023-11-21T02:05:11;8.90;;;8.60;;
908;SDS011;441;51.192;6.788;2023-11-21T02:07:39;9.63;;;9.30;;
908;SDS011;441;51.192;6.788;2023-11-21T02:10:07;8.77;;;8.47;;
908;SDS011;441;51.192;6.788;2023-11-21T02:12:34;9.53;;;9.20;;
908;SDS011;441;51.192;6.788;2023-11-21T02:15:03;9.70;;;9.40;;
908;SDS011;441;51.192;6.788;2023-11-21T02:17:34;9.37;;;9.17;;
908;SDS011;441;51.192;6.788;2023-11-21T02:20:02;8.93;;;8.60;;
908;SDS011;441;51.192;6.788;2023-11-21T02:22:31;9.57;;;9.20;;
908;SDS011;441;51.192;6.788;2023-11-21T02:25:03;9.00;;;8.80;;
908;SDS011;441;51.192;6.788;2023-11-21T02:27:32;8.60;;;8.30;;
908;SDS011;441;51.192;6.788;2023-11-21T02:29:59;9.73;;;9.43;;
908;SDS011;441;51.192;6.788;2023-11-21T02:32:26;8.97;;;8.67;;
908;SDS011;441;51.192;6.788;2023-11-21T02:34:53;9.07;;;8.77;;
908;SDS011;441;51.192;6.788;2023-11-21T02:37:21;9.23;;;8.93;;
908;SDS011;441;51.192;6.788;2023-11-21T02:39:47;10.07;;;9.77;;
908;SDS011;441;51.192;6.788;2023-11-21T02:42:16;9.57;;;9.27;;
908;SDS011;441;51.192;6.788;2023-11-21T02:44:43;9.33;;;9.10;;
908;SDS011;441;51.192;6.788;2023-11-21T02:47:09;8.70;;;8.50;;
908;SDS011;441;51.192;6.788;2023-11-21T02:49:36;8.83;;;8.57;;
908;SDS011;441;51.192;6.788;2023-11-21T02:52:03;8.37;;;8.13;;
908;SDS011;441;51.192;6.788;2023-11-21T02:54:31;8.73;;;8.43;;
908;SDS011;441;51.192;6.788;2023-11-21T02:57:01;8.83;;;8.50;;
908;SDS011;441;51.192;6.788;2023-11-21T02:59:29;9.40;;;9.03;;
908;SDS011;441;51.192;6.788;2023-11-21T03:01:56;9.13;;;8.80;;
908;SDS011;441;51.192;6.788;2023-11-21T03:04:23;9.43;;;9.23;;
908;SDS011;441;51.192;6.788;2023-11-21T03:06:51;10.07;;;9.67;;
908;SDS011;441;51.192;6.788;2023-11-21T03:09:18;10.10;;;9.73;;
908;SDS011;441;51.192;6.788;2023-11-21T03:11:45;9.67;;;9.30;;
908;SDS011;441;51.192;6.788;2023-11-21T03:14:12;10.27;;;10.00;;
908;SDS011;441;51.192;6.788;2023-11-21T03:16:40;9.30;;;9.10;;
908;SDS011;441;51.192;6.788;2023-11-21T03:19:07;8.63;;;8.43;;
908;SDS011;441;51.192;6.788;2023-11-21T03:21:34;9.00;;;8.70;;
908;SDS011;441;51.192;6.788;2023-11-21T03:24:01;8.30;;;8.00;;
908;SDS011;441;51.192;6.788;2023-11-21T03:26:28;8.70;;;8.40;;
908;SDS011;441;51.192;6.788;2023-11-21T03:28:55;8.33;;;8.13;;
908;SDS011;441;51.192;6.788;2023-11-21T03:31:22;9.83;;;9.53;;
908;SDS011;441;51.192;6.788;2023-11-21T03:33:50;8.37;;;8.17;;
908;SDS011;441;51.192;6.788;2023-11-21T03:36:18;8.80;;;8.50;;
908;SDS011;441;51.192;6.788;2023-11-21T03:38:45;8.53;;;8.33;;
908;SDS011;441;51.192;6.788;2023-11-21T03:41:14;9.30;;;9.10;;
908;SDS011;441;51.192;6.788;2023-11-21T03:43:41;8.93;;;8.63;;
908;SDS011;441;51.192;6.788;2023-11-21T03:46:07;8.40;;;8.20;;
908;SDS011;441;51.192;6.788;2023-11-21T03:48:35;9.00;;;8.70;;
908;SDS011;441;51.192;6.788;2023-11-21T03:51:03;8.97;;;8.67;;
908;SDS011;441;51.192;6.788;2023-11-21T03:53:30;8.93;;;8.63;;
908;SDS011;441;51.192;6.788;2023-11-21T03:55:57;9.33;;;9.03;;
908;SDS011;441;51.192;6.788;2023-11-21T03:58:24;8.70;;;8.50;;
908;SDS011;441;51.192;6.788;2023-11-21T04:00:51;9.47;;;9.07;;
908;SDS011;441;51.192;6.788;2023-11-21T04:03:18;8.60;;;8.40;;
908;SDS011;441;51.192;6.788;2023-11-21T04:05:45;8.90;;;8.60;;
908;SDS011;441;51.192;6.788;2023-11-21T04:08:13;9.17;;;8.97;;
908;SDS011;441;51.192;6.788;2023-11-21T04:10:40;10.50;;;10.00;;
908;SDS011;441;51.192;6.788;2023-11-21T04:13:07;8.87;;;8.57;;
908;SDS011;441;51.192;6.788;2023-11-21T04:15:35;9.20;;;8.90;;
908;SDS011;441;51.192;6.788;2023-11-21T04:18:02;9.10;;;8.90;;
908;SDS011;441;51.192;6.788;2023-11-21T04:20:29;9.30;;;9.00;;
908;SDS011;441;51.192;6.788;2023-11-21T04:22:56;9.17;;;8.87;;
908;SDS011;441;51.192;6.788;2023-11-21T04:25:24;10.03;;;9.73;;
908;SDS011;441;51.192;6.788;2023-11-21T04:27:52;8.97;;;8.70;;
908;SDS011;441;51.192;6.788;2023-11-21T04:30:19;8.90;;;8.70;;
908;SDS011;441;51.192;6.788;2023-11-21T04:32:46;10.27;;;9.97;;
908;SDS011;441;51.192;6.788;2023-11-21T04:35:13;9.50;;;9.20;;
908;SDS011;441;51.192;6.788;2023-11-21T04:37:40;10.00;;;9.70;;
908;SDS011;441;51.192;6.788;2023-11-21T04:40:07;9.80;;;9.50;;
908;SDS011;441;51.192;6.788;2023-11-21T04:42:36;8.93;;;8.70;;
908;SDS011;441;51.192;6.788;2023-11-21T04:45:04;9.73;;;9.47;;
908;SDS011;441;51.192;6.788;2023-11-21T04:47:34;9.33;;;9.03;;
908;SDS011;441;51.192;6.788;2023-11-21T04:50:01;9.97;;;9.67;;
908;SDS011;441;51.192;6.788;2023-11-21T04:52:28;9.30;;;9.00;;
908;SDS011;441;51.192;6.788;2023-11-21T04:54:56;9.73;;;9.43;;
908;SDS011;441;51.192;6.788;2023-11-21T04:57:23;9.73;;;9.53;;
908;SDS011;441;51.192;6.788;2023-11-21T04:59:52;9.30;;;9.00;;
908;SDS011;441;51.192;6.788;2023-11-21T05:02:18;9.60;;;9.30;;
908;SDS011;441;51.192;6.788;2023-11-21T05:04:46;9.77;;;9.47;;
908;SDS011;441;51.192;6.788;2023-11-21T05:07:13;10.33;;;10.03;;
908;SDS011;441;51.192;6.788;2023-11-21T05:09:41;10.00;;;9.70;;
908;SDS011;441;51.192;6.788;2023-11-21T05:12:09;10.80;;;10.40;;
908;SDS011;441;51.192;6.788;2023-11-21T05:14:37;10.83;;;10.43;;
908;SDS011;441;51.192;6.788;2023-11-21T05:17:05;12.27;;;11.53;;
908;SDS011;441;51.192;6.788;2023-11-21T05:19:33;11.13;;;10.77;;
908;SDS011;441;51.192;6.788;2023-11-21T05:22:01;10.50;;;10.20;;
908;SDS011;441;51.192;6.788;2023-11-21T05:24:28;10.50;;;10.20;;
908;SDS011;441;51.192;6.788;2023-11-21T05:26:55;10.43;;;10.03;;
908;SDS011;441;51.192;6.788;2023-11-21T05:29:22;10.33;;;10.03;;
908;SDS011;441;51.192;6.788;2023-11-21T05:31:50;9.80;;;9.60;;
908;SDS011;441;51.192;6.788;2023-11-21T05:34:19;9.83;;;9.57;;
908;SDS011;441;51.192;6.788;2023-11-21T05:36:49;10.07;;;9.77;;
908;SDS011;441;51.192;6.788;2023-11-21T05:39:16;11.37;;;10.97;;
908;SDS011;441;51.192;6.788;2023-11-21T05:41:43;11.37;;;10.67;;
908;SDS011;441;51.192;6.788;2023-11-21T05:44:10;13.10;;;12.20;;
908;SDS011;441;51.192;6.788;2023-11-21T05:46:39;18.80;;;12.30;;
908;SDS011;441;51.192;6.788;2023-11-21T05:49:08;14.30;;;13.00;;
908;SDS011;441;51.192;6.788;2023-11-21T05:51:36;12.90;;;11.60;;
908;SDS011;441;51.192;6.788;2023-11-21T05:54:03;15.83;;;13.10;;
908;SDS011;441;51.192;6.788;2023-11-21T05:56:30;13.77;;;12.77;;
908;SDS011;441;51.192;6.788;2023-11-21T05:58:57;12.70;;;11.53;;
908;SDS011;441;51.192;6.788;2023-11-21T06:01:24;16.40;;;13.40;;
908;SDS011;441;51.192;6.788;2023-11-21T06:03:53;13.00;;;12.00;;
908;SDS011;441;51.192;6.788;2023-11-21T06:06:20;20.77;;;13.23;;
908;SDS011;441;51.192;6.788;2023-11-21T06:08:51;12.40;;;11.50;;
908;SDS011;441;51.192;6.788;2023-11-21T06:11:17;13.27;;;12.23;;
908;SDS011;441;51.192;6.788;2023-11-21T06:13:44;15.10;;;13.67;;
908;SDS011;441;51.192;6.788;2023-11-21T06:16:13;13.57;;;12.73;;
908;SDS011;441;51.192;6.788;2023-11-21T06:18:42;11.90;;;11.07;;
908;SDS011;441;51.192;6.788;2023-11-21T06:21:09;15.17;;;13.67;;
908;SDS011;441;51.192;6.788;2023-11-21T06:23:36;11.30;;;10.50;;
908;SDS011;441;51.192;6.788;2023-11-21T06:26:04;11.53;;;10.73;;
908;SDS011;441;51.192;6.788;2023-11-21T06:28:32;11.83;;;11.00;;
908;SDS011;441;51.192;6.788;2023-11-21T06:30:58;12.00;;;11.20;;
908;SDS011;441;51.192;6.788;2023-11-21T06:33:30;13.60;;;12.60;;
908;SDS011;441;51.192;6.788;2023-11-21T06:35:57;12.77;;;11.97;;
908;SDS011;441;51.192;6.788;2023-11-21T06:38:24;11.67;;;10.90;;
908;SDS011;441;51.192;6.788;2023-11-21T06:40:53;11.33;;;10.60;;
908;SDS011;441;51.192;6.788;2023-11-21T06:43:22;13.00;;;12.03;;
908;SDS011;441;51.192;6.788;2023-11-21T06:45:48;12.80;;;12.07;;
908;SDS011;441;51.192;6.788;2023-11-21T06:48:15;14.03;;;12.93;;
908;SDS011;441;51.192;6.788;2023-11-21T06:50:42;12.13;;;11.53;;
908;SDS011;441;51.192;6.788;2023-11-21T06:53:09;12.40;;;11.47;;
908;SDS011;441;51.192;6.788;2023-11-21T06:55:36;12.03;;;11.20;;
908;SDS011;441;51.192;6.788;2023-11-21T06:58:03;12.07;;;11.07;;
908;SDS011;441;51.192;6.788;2023-11-21T07:00:31;11.77;;;10.80;;
908;SDS011;441;51.192;6.788;2023-11-21T07:02:58;12.73;;;11.63;;
908;SDS011;441;51.192;6.788;2023-11-21T07:05:25;13.63;;;12.73;;
908;SDS011;441;51.192;6.788;2023-11-21T07:07:52;13.07;;;12.03;;
908;SDS011;441;51.192;6.788;2023-11-21T07:10:19;11.40;;;10.80;;
908;SDS011;441;51.192;6.788;2023-11-21T07:12:46;10.80;;;10.40;;
908;SDS011;441;51.192;6.788;2023-11-21T07:15:13;12.37;;;11.50;;
908;SDS011;441;51.192;6.788;2023-11-21T07:17:41;11.37;;;10.57;;
908;SDS011;441;51.192;6.788;2023-11-21T07:20:09;11.77;;;10.93;;
908;SDS011;441;51.192;6.788;2023-11-21T07:22:37;12.03;;;11.23;;
908;SDS011;441;51.192;6.788;2023-11-21T07:25:04;11.50;;;10.93;;
908;SDS011;441;51.192;6.788;2023-11-21T07:27:32;11.57;;;10.97;;
908;SDS011;441;51.192;6.788;2023-11-21T07:30:01;12.70;;;11.87;;
908;SDS011;441;51.192;6.788;2023-11-21T07:32:29;12.10;;;11.60;;
908;SDS011;441;51.192;6.788;2023-11-21T07:34:58;11.70;;;11.10;;
908;SDS011;441;51.192;6.788;2023-11-21T07:37:26;12.80;;;12.23;;
908;SDS011;441;51.192;6.788;2023-11-21T07:39:53;13.47;;;12.57;;
908;SDS011;441;51.192;6.788;2023-11-21T07:42:21;13.83;;;12.93;;
908;SDS011;441;51.192;6.788;2023-11-21T07:44:49;13.53;;;12.70;;
908;SDS011;441;51.192;6.788;2023-11-21T07:47:17;11.77;;;10.90;;
908;SDS011;441;51.192;6.788;2023-11-21T07:49:44;11.67;;;11.07;;
908;SDS011;441;51.192;6.788;2023-11-21T07:52:13;9.77;;;9.23;;
908;SDS011;441;51.192;6.788;2023-11-21T07:54:41;10.87;;;10.40;;
908;SDS011;441;51.192;6.788;2023-11-21T07:57:08;11.13;;;10.53;;
908;SDS011;441;51.192;6.788;2023-11-21T07:59:38;10.80;;;10.30;;
908;SDS011;441;51.192;6.788;2023-11-21T08:02:05;11.17;;;10.53;;
908;SDS011;441;51.192;6.788;2023-11-21T08:04:33;12.03;;;11.53;;
908;SDS011;441;51.192;6.788;2023-11-21T08:07:00;11.00;;;10.50;;
908;SDS011;441;51.192;6.788;2023-11-21T08:09:30;10.57;;;10.13;;
908;SDS011;441;51.192;6.788;2023-11-21T08:11:58;10.80;;;10.30;;
908;SDS011;441;51.192;6.788;2023-11-21T08:14:25;10.60;;;10.00;;
908;SDS011;441;51.192;6.788;2023-11-21T08:16:52;10.40;;;10.00;;
908;SDS011;441;51.192;6.788;2023-11-21T08:19:22;10.73;;;10.23;;
908;SDS011;441;51.192;6.788;2023-11-21T08:21:50;10.37;;;10.07;;
908;SDS011;441;51.192;6.788;2023-11-21T08:24:19;11.43;;;10.53;;
908;SDS011;441;51.192;6.788;2023-11-21T08:26:48;11.97;;;11.30;;
908;SDS011;441;51.192;6.788;2023-11-21T08:29:16;10.87;;;10.50;;
908;SDS011;441;51.192;6.788;2023-11-21T08:31:43;10.77;;;10.37;;
908;SDS011;441;51.192;6.788;2023-11-21T08:34:12;11.00;;;10.50;;
908;SDS011;441;51.192;6.788;2023-11-21T08:36:41;10.03;;;9.53;;
908;SDS011;441;51.192;6.788;2023-11-21T08:39:08;10.40;;;10.00;;
908;SDS011;441;51.192;6.788;2023-11-21T08:41:35;9.70;;;9.40;;
908;SDS011;441;51.192;6.788;2023-11-21T08:44:04;9.80;;;9.50;;
908;SDS011;441;51.192;6.788;2023-11-21T08:46:32;10.43;;;10.03;;
908;SDS011;441;51.192;6.788;2023-11-21T08:49:01;10.30;;;9.90;;
908;SDS011;441;51.192;6.788;2023-11-21T08:51:29;10.87;;;10.40;;
908;SDS011;441;51.192;6.788;2023-11-21T08:53:56;11.30;;;10.80;;
908;SDS011;441;51.192;6.788;2023-11-21T08:56:25;11.53;;;11.03;;
908;SDS011;441;51.192;6.788;2023-11-21T08:58:53;11.20;;;10.50;;
908;SDS011;441;51.192;6.788;2023-11-21T09:01:21;10.70;;;10.30;;
908;SDS011;441;51.192;6.788;2023-11-21T09:03:48;9.60;;;9.30;;
908;SDS011;441;51.192;6.788;2023-11-21T09:06:15;11.10;;;10.70;;
908;SDS011;441;51.192;6.788;2023-11-21T09:08:42;11.23;;;10.77;;
908;SDS011;441;51.192;6.788;2023-11-21T09:11:09;11.20;;;10.80;;
908;SDS011;441;51.192;6.788;2023-11-21T09:13:36;11.00;;;10.50;;
908;SDS011;441;51.192;6.788;2023-11-21T09:16:03;10.20;;;9.60;;
908;SDS011;441;51.192;6.788;2023-11-21T09:18:32;10.90;;;10.50;;
908;SDS011;441;51.192;6.788;2023-11-21T09:20:59;11.07;;;10.60;;
908;SDS011;441;51.192;6.788;2023-11-21T09:23:26;11.10;;;10.80;;
908;SDS011;441;51.192;6.788;2023-11-21T09:25:53;10.07;;;9.80;;
908;SDS011;441;51.192;6.788;2023-11-21T09:28:22;11.60;;;11.00;;
908;SDS011;441;51.192;6.788;2023-11-21T09:30:49;10.40;;;10.00;;
908;SDS011;441;51.192;6.788;2023-11-21T09:33:16;12.10;;;11.47;;
908;SDS011;441;51.192;6.788;2023-11-21T09:35:44;11.70;;;11.30;;
908;SDS011;441;51.192;6.788;2023-11-21T09:38:11;10.97;;;10.47;;
908;SDS011;441;51.192;6.788;2023-11-21T09:40:38;12.43;;;11.93;;
908;SDS011;441;51.192;6.788;2023-11-21T09:43:05;11.83;;;11.23;;
908;SDS011;441;51.192;6.788;2023-11-21T09:45:41;11.90;;;11.37;;
908;SDS011;441;51.192;6.788;2023-11-21T09:48:12;11.30;;;10.80;;
908;SDS011;441;51.192;6.788;2023-11-21T09:50:41;11.00;;;10.60;;
908;SDS011;441;51.192;6.788;2023-11-21T09:53:12;11.37;;;10.90;;
908;SDS011;441;51.192;6.788;2023-11-21T09:55:45;11.37;;;10.97;;
908;SDS011;441;51.192;6.788;2023-11-21T09:58:13;11.60;;;11.20;;
908;SDS011;441;51.192;6.788;2023-11-21T10:00:41;11.23;;;10.93;;
908;SDS011;441;51.192;6.788;2023-11-21T10:03:09;11.80;;;11.40;;
908;SDS011;441;51.192;6.788;2023-11-21T10:05:36;11.47;;;10.97;;
908;SDS011;441;51.192;6.788;2023-11-21T10:08:07;12.40;;;11.93;;
908;SDS011;441;51.192;6.788;2023-11-21T10:10:35;10.80;;;10.37;;
908;SDS011;441;51.192;6.788;2023-11-21T10:13:03;11.83;;;11.33;;
908;SDS011;441;51.192;6.788;2023-11-21T10:15:33;11.87;;;11.43;;
908;SDS011;441;51.192;6.788;2023-11-21T10:18:01;11.97;;;11.30;;
908;SDS011;441;51.192;6.788;2023-11-21T10:20:31;11.90;;;11.50;;
908;SDS011;441;51.192;6.788;2023-11-21T10:22:59;12.10;;;11.70;;
908;SDS011;441;51.192;6.788;2023-11-21T10:25:30;12.80;;;12.20;;
908;SDS011;441;51.192;6.788;2023-11-21T10:27:57;12.33;;;11.73;;
908;SDS011;441;51.192;6.788;2023-11-21T10:30:31;11.47;;;11.10;;
908;SDS011;441;51.192;6.788;2023-11-21T10:33:02;12.00;;;11.50;;
908;SDS011;441;51.192;6.788;2023-11-21T10:38:20;12.13;;;11.60;;
908;SDS011;441;51.192;6.788;2023-11-21T10:40:50;11.83;;;11.43;;
908;SDS011;441;51.192;6.788;2023-11-21T10:43:19;12.60;;;12.20;;
908;SDS011;441;51.192;6.788;2023-11-21T10:45:50;11.70;;;11.40;;
908;SDS011;441;51.192;6.788;2023-11-21T10:48:17;11.97;;;11.57;;
908;SDS011;441;51.192;6.788;2023-11-21T10:50:45;12.20;;;11.80;;
908;SDS011;441;51.192;6.788;2023-11-21T10:53:12;11.87;;;11.33;;
908;SDS011;441;51.192;6.788;2023-11-21T10:55:39;12.70;;;12.20;;
908;SDS011;441;51.192;6.788;2023-11-21T10:58:07;11.87;;;11.47;;
908;SDS011;441;51.192;6.788;2023-11-21T11:00:36;12.63;;;12.23;;
908;SDS011;441;51.192;6.788;2023-11-21T11:03:05;11.70;;;11.30;;
908;SDS011;441;51.192;6.788;2023-11-21T11:05:38;12.20;;;11.80;;
908;SDS011;441;51.192;6.788;2023-11-21T11:08:11;12.03;;;11.60;;
908;SDS011;441;51.192;6.788;2023-11-21T11:10:43;11.60;;;11.20;;
908;SDS011;441;51.192;6.788;2023-11-21T11:13:13;11.77;;;11.27;;
908;SDS011;441;51.192;6.788;2023-11-21T11:15:40;10.77;;;10.27;;
908;SDS011;441;51.192;6.788;2023-11-21T11:18:09;12.90;;;12.20;;
908;SDS011;441;51.192;6.788;2023-11-21T11:20:36;11.47;;;11.07;;
908;SDS011;441;51.192;6.788;2023-11-21T11:23:12;11.37;;;10.93;;
908;SDS011;441;51.192;6.788;2023-11-21T11:25:53;12.07;;;11.57;;
908;SDS011;441;51.192;6.788;2023-11-21T11:28:35;12.30;;;11.90;;
908;SDS011;441;51.192;6.788;2023-11-21T11:31:12;12.90;;;12.40;;
908;SDS011;441;51.192;6.788;2023-11-21T11:33:51;12.43;;;11.93;;
908;SDS011;441;51.192;6.788;2023-11-21T11:36:25;13.60;;;13.00;;
908;SDS011;441;51.192;6.788;2023-11-21T11:38:57;12.03;;;11.60;;
908;SDS011;441;51.192;6.788;2023-11-21T11:41:27;12.20;;;11.73;;
908;SDS011;441;51.192;6.788;2023-11-21T11:43:59;11.70;;;11.30;;
908;SDS011;441;51.192;6.788;2023-11-21T11:46:39;11.10;;;10.60;;
908;SDS011;441;51.192;6.788;2023-11-21T11:49:07;11.20;;;10.60;;
908;SDS011;441;51.192;6.788;2023-11-21T11:51:34;11.40;;;11.10;;
908;SDS011;441;51.192;6.788;2023-11-21T11:54:02;11.00;;;10.70;;
908;SDS011;441;51.192;6.788;2023-11-21T11:56:31;11.60;;;11.20;;
908;SDS011;441;51.192;6.788;2023-11-21T11:59:02;11.70;;;11.20;;
908;SDS011;441;51.192;6.788;2023-11-21T12:01:32;12.07;;;11.57;;
908;SDS011;441;51.192;6.788;2023-11-21T12:07:01;12.50;;;12.00;;
908;SDS011;441;51.192;6.788;2023-11-21T12:09:31;12.10;;;11.60;;
908;SDS011;441;51.192;6.788;2023-11-21T12:11:58;12.13;;;11.73;;
908;SDS011;441;51.192;6.788;2023-11-21T12:14:27;12.27;;;11.77;;
908;SDS011;441;51.192;6.788;2023-11-21T12:16:55;11.47;;;11.07;;
908;SDS011;441;51.192;6.788;2023-11-21T12:19:22;12.17;;;11.77;;
908;SDS011;441;51.192;6.788;2023-11-21T12:21:49;12.53;;;12.10;;
908;SDS011;441;51.192;6.788;2023-11-21T12:24:17;11.10;;;10.60;;
908;SDS011;441;51.192;6.788;2023-11-21T12:26:44;11.33;;;10.73;;
908;SDS011;441;51.192;6.788;2023-11-21T12:29:11;12.17;;;11.70;;
908;SDS011;441;51.192;6.788;2023-11-21T12:31:39;11.57;;;11.10;;
908;SDS011;441;51.192;6.788;2023-11-21T12:34:06;12.23;;;11.83;;
908;SDS011;441;51.192;6.788;2023-11-21T12:36:36;11.80;;;11.20;;
908;SDS011;441;51.192;6.788;2023-11-21T12:39:03;13.00;;;12.60;;
908;SDS011;441;51.192;6.788;2023-11-21T12:41:31;12.13;;;11.73;;
908;SDS011;441;51.192;6.788;2023-11-21T12:43:57;12.37;;;11.97;;
908;SDS011;441;51.192;6.788;2023-11-21T12:46:24;11.30;;;10.80;;
908;SDS011;441;51.192;6.788;2023-11-21T12:48:56;11.20;;;10.90;;
908;SDS011;441;51.192;6.788;2023-11-21T12:51:23;12.07;;;11.57;;
908;SDS011;441;51.192;6.788;2023-11-21T12:53:51;11.90;;;11.30;;
908;SDS011;441;51.192;6.788;2023-11-21T12:56:18;11.73;;;11.23;;
908;SDS011;441;51.192;6.788;2023-11-21T12:58:49;11.53;;;11.13;;
908;SDS011;441;51.192;6.788;2023-11-21T13:01:17;12.07;;;11.60;;
908;SDS011;441;51.192;6.788;2023-11-21T13:03:47;13.07;;;12.57;;
908;SDS011;441;51.192;6.788;2023-11-21T13:06:18;13.27;;;12.70;;
908;SDS011;441;51.192;6.788;2023-11-21T13:08:49;12.47;;;11.87;;
908;SDS011;441;51.192;6.788;2023-11-21T13:11:16;12.93;;;12.13;;
908;SDS011;441;51.192;6.788;2023-11-21T13:13:44;12.47;;;11.70;;
908;SDS011;441;51.192;6.788;2023-11-21T13:16:10;12.80;;;12.30;;
908;SDS011;441;51.192;6.788;2023-11-21T13:18:38;12.87;;;12.10;;
908;SDS011;441;51.192;6.788;2023-11-21T13:21:07;12.20;;;11.70;;
908;SDS011;441;51.192;6.788;2023-11-21T13:23:40;12.43;;;12.03;;
908;SDS011;441;51.192;6.788;2023-11-21T13:26:07;13.10;;;12.50;;
908;SDS011;441;51.192;6.788;2023-11-21T13:28:35;12.37;;;11.83;;
908;SDS011;441;51.192;6.788;2023-11-21T13:31:03;12.10;;;11.70;;
908;SDS011;441;51.192;6.788;2023-11-21T13:33:45;12.23;;;11.73;;
908;SDS011;441;51.192;6.788;2023-11-21T13:36:16;12.40;;;11.90;;
908;SDS011;441;51.192;6.788;2023-11-21T13:38:48;12.90;;;12.30;;
908;SDS011;441;51.192;6.788;2023-11-21T13:41:17;13.23;;;12.73;;
908;SDS011;441;51.192;6.788;2023-11-21T13:43:44;13.50;;;12.73;;
908;SDS011;441;51.192;6.788;2023-11-21T13:46:18;13.10;;;12.60;;
908;SDS011;441;51.192;6.788;2023-11-21T13:48:48;12.80;;;12.20;;
908;SDS011;441;51.192;6.788;2023-11-21T13:51:20;12.13;;;11.63;;
908;SDS011;441;51.192;6.788;2023-11-21T13:53:57;13.90;;;13.40;;
908;SDS011;441;51.192;6.788;2023-11-21T13:56:25;13.37;;;12.67;;
908;SDS011;441;51.192;6.788;2023-11-21T13:58:54;12.07;;;11.57;;
908;SDS011;441;51.192;6.788;2023-11-21T14:01:21;13.73;;;12.93;;
908;SDS011;441;51.192;6.788;2023-11-21T14:04:07;11.60;;;11.20;;
908;SDS011;441;51.192;6.788;2023-11-21T14:06:44;12.53;;;12.00;;
908;SDS011;441;51.192;6.788;2023-11-21T14:09:14;13.70;;;13.20;;
908;SDS011;441;51.192;6.788;2023-11-21T14:11:49;12.60;;;12.10;;
908;SDS011;441;51.192;6.788;2023-11-21T14:14:17;13.07;;;12.47;;
908;SDS011;441;51.192;6.788;2023-11-21T14:16:44;13.77;;;13.07;;
908;SDS011;441;51.192;6.788;2023-11-21T14:19:11;14.10;;;13.60;;
908;SDS011;441;51.192;6.788;2023-11-21T14:21:42;13.50;;;12.87;;
908;SDS011;441;51.192;6.788;2023-11-21T14:24:10;13.40;;;12.80;;
908;SDS011;441;51.192;6.788;2023-11-21T14:26:39;13.10;;;12.50;;
908;SDS011;441;51.192;6.788;2023-11-21T14:29:07;13.50;;;12.90;;
908;SDS011;441;51.192;6.788;2023-11-21T14:31:37;13.97;;;13.13;;
908;SDS011;441;51.192;6.788;2023-11-21T14:34:04;13.90;;;13.10;;
908;SDS011;441;51.192;6.788;2023-11-21T14:36:32;12.83;;;12.23;;
908;SDS011;441;51.192;6.788;2023-11-21T14:38:59;14.20;;;13.50;;
908;SDS011;441;51.192;6.788;2023-11-21T14:41:26;13.97;;;13.37;;
908;SDS011;441;51.192;6.788;2023-11-21T14:43:55;13.60;;;13.00;;
908;SDS011;441;51.192;6.788;2023-11-21T14:46:22;13.43;;;12.80;;
908;SDS011;441;51.192;6.788;2023-11-21T14:48:50;15.00;;;14.23;;
908;SDS011;441;51.192;6.788;2023-11-21T14:51:25;13.80;;;13.10;;
908;SDS011;441;51.192;6.788;2023-11-21T14:53:52;13.37;;;12.87;;
908;SDS011;441;51.192;6.788;2023-11-21T14:56:19;12.17;;;11.70;;
908;SDS011;441;51.192;6.788;2023-11-21T14:58:51;13.80;;;13.00;;
908;SDS011;441;51.192;6.788;2023-11-21T15:01:20;13.00;;;12.40;;
908;SDS011;441;51.192;6.788;2023-11-21T15:04:00;14.03;;;13.43;;
908;SDS011;441;51.192;6.788;2023-11-21T15:06:26;12.60;;;12.00;;
908;SDS011;441;51.192;6.788;2023-11-21T15:08:55;13.30;;;12.70;;
908;SDS011;441;51.192;6.788;2023-11-21T15:11:45;13.47;;;12.77;;
908;SDS011;441;51.192;6.788;2023-11-21T15:14:13;13.77;;;13.27;;
908;SDS011;441;51.192;6.788;2023-11-21T15:16:47;13.17;;;12.57;;
908;SDS011;441;51.192;6.788;2023-11-21T15:19:18;13.57;;;12.97;;
908;SDS011;441;51.192;6.788;2023-11-21T15:21:51;13.70;;;13.10;;
908;SDS011;441;51.192;6.788;2023-11-21T15:24:18;13.10;;;12.50;;
908;SDS011;441;51.192;6.788;2023-11-21T15:26:45;14.57;;;13.77;;
908;SDS011;441;51.192;6.788;2023-11-21T15:29:12;12.83;;;12.20;;
908;SDS011;441;51.192;6.788;2023-11-21T15:31:40;13.83;;;13.20;;
908;SDS011;441;51.192;6.788;2023-11-21T15:34:12;13.47;;;12.90;;
908;SDS011;441;51.192;6.788;2023-11-21T15:36:39;13.40;;;12.90;;
908;SDS011;441;51.192;6.788;2023-11-21T15:39:06;13.60;;;12.97;;